Time;durP1;ratioP1;P1;durP2;ratioP2;P2;SDS_P1;SDS_P2;PMS_P1;PMS_P2;Temp;Humidity;BMP_temperature;BMP_pressure;BME280_temperature;BME280_humidity;BME280_pressure;Samples;Min_cycle;Max_cycle;Signal;HPM_P1;HPM_P2
2022/06/07 00:00:16;;;;;;;;;;;;;;;-144.99;100.00;52313.56;5057633;28;20018;-62
2022/06/07 00:02:43;;;;;;;;;;;;;;;-144.99;100.00;52329.88;5068202;28;19973;-61
2022/06/07 00:05:09;;;;;;;;;;;;;;;-144.99;100.00;52317.66;5057543;28;20129;-62
2022/06/07 00:07:36;;;;;;;;;;;;;;;-144.99;100.00;52297.25;5063845;28;19985;-63
2022/06/07 00:10:03;;;;;;;;;;;;;;;-144.99;100.00;52317.66;5060901;28;20022;-63
2022/06/07 00:12:29;;;;;;;;;;;;;;;-144.99;100.00;52297.25;5061674;28;20392;-63
2022/06/07 00:14:55;;;;;;;;;;;;;;;-144.99;100.00;52305.41;5063231;28;19954;-60
2022/06/07 00:17:23;;;;;;;;;;;;;;;-144.99;100.00;52305.41;5056339;28;20088;-60
2022/06/07 00:19:50;;;;;;;;;;;;;;;-144.99;100.00;52321.72;5060463;28;20082;-60
2022/06/07 00:22:17;;;;;;;;;;;;;;;-144.99;100.00;52309.50;5062881;28;19978;-61
2022/06/07 00:24:43;;;;;;;;;;;;;;;-144.99;100.00;52305.41;5053887;28;19985;-64
2022/06/07 00:27:10;;;;;;;;;;;;;;;-144.99;100.00;52309.50;5055501;28;19995;-64
2022/06/07 00:29:37;;;;;;;;;;;;;;;-144.99;100.00;52313.56;5062863;28;20024;-64
2022/06/07 00:32:05;;;;;;;;;;;;;;;-144.99;100.00;52325.81;5064067;28;20054;-64
2022/06/07 00:34:33;;;;;;;;;;;;;;;-144.99;100.00;52309.50;5060088;28;19984;-68
2022/06/07 00:37:00;;;;;;;;;;;;;;;-144.99;100.00;52297.25;4716520;28;10000466;-62
2022/06/07 00:39:26;;;;;;;;;;;;;;;-144.99;100.00;52305.41;5058551;28;19975;-63
2022/06/07 00:41:53;;;;;;;;;;;;;;;-144.99;100.00;52293.19;5060512;28;20072;-63
2022/06/07 00:44:37;;;;;;;;;;;;;;;-144.99;100.00;52313.56;5068572;28;20064;-63
2022/06/07 00:47:06;;;;;;;;;;;;;;;-144.99;100.00;52293.19;5057804;28;20085;-68
2022/06/07 00:49:37;;;;;;;;;;;;;;;-144.99;100.00;52287.06;5063374;28;20349;-68
2022/06/07 00:52:04;;;;;;;;;;;;;;;-144.99;100.00;52317.66;5060776;28;19973;-66
2022/06/07 00:54:31;;;;;;;;;;;;;;;-144.99;100.00;52329.88;5063485;28;20059;-66
2022/06/07 00:56:58;;;;;;;;;;;;;;;-144.99;100.00;52297.25;5067812;28;19995;-63
2022/06/07 00:59:24;;;;;;;;;;;;;;;-144.99;100.00;52295.22;5072062;28;20050;-63
2022/06/07 01:01:51;;;;;;;;;;;;;;;-144.99;100.00;52321.72;5068934;28;20436;-63
2022/06/07 01:04:17;;;;;;;;;;;;;;;-144.99;100.00;52301.34;5068993;28;19981;-65
2022/06/07 01:12:19;;;;;;;;;;;;;;;-144.99;100.00;52333.94;5046144;28;20030;-66
2022/06/07 01:14:45;;;;;;;;;;;;;;;-144.99;100.00;52289.13;5049419;28;19970;-66
2022/06/07 01:17:12;;;;;;;;;;;;;;;-144.99;100.00;52342.09;5047615;28;20114;-70
2022/06/07 01:19:39;;;;;;;;;;;;;;;-144.99;100.00;52305.41;5047318;28;20368;-69
2022/06/07 01:22:06;;;;;;;;;;;;;;;-144.99;100.00;52301.34;5039739;28;20480;-69
2022/06/07 01:24:33;;;;;;;;;;;;;;;-144.99;100.00;52329.88;5038958;28;19975;-69
2022/06/07 01:26:59;;;;;;;;;;;;;;;-144.99;100.00;52323.75;5042095;28;19988;-68
2022/06/07 01:29:26;;;;;;;;;;;;;;;-144.99;100.00;52338.03;5038069;28;19972;-69
2022/06/07 01:31:52;;;;;;;;;;;;;;;-144.99;100.00;52301.34;5038847;28;20065;-68
2022/06/07 01:34:19;;;;;;;;;;;;;;;-144.99;100.00;52303.38;5042242;28;20066;-68
2022/06/07 01:36:46;;;;;;;;;;;;;;;-144.99;100.00;52370.63;5039781;28;20026;-70
2022/06/07 01:41:58;;;;;;;;;;;;;;;-144.99;100.00;52289.13;5031429;28;19996;-69
2022/06/07 01:44:25;;;;;;;;;;;;;;;-144.99;100.00;52305.41;5027395;28;19976;-69
2022/06/07 01:46:52;;;;;;;;;;;;;;;-144.99;100.00;52305.41;5033238;28;20113;-68
2022/06/07 01:49:19;;;;;;;;;;;;;;;-144.99;100.00;52317.66;5035662;28;20016;-68
2022/06/07 01:51:46;;;;;;;;;;;;;;;-144.99;100.00;52329.88;5038529;28;19970;-68
2022/06/07 01:54:14;;;;;;;;;;;;;;;-144.99;100.00;52293.19;5034535;28;20417;-71
2022/06/07 01:56:41;;;;;;;;;;;;;;;-144.99;100.00;52329.88;5039730;28;20033;-69
2022/06/07 01:59:08;;;;;;;;;;;;;;;-144.99;100.00;52338.03;5036252;28;20101;-69
2022/06/07 02:01:34;;;;;;;;;;;;;;;-144.99;100.00;52293.19;5041212;28;20008;-70
2022/06/07 02:04:01;;;;;;;;;;;;;;;-144.99;100.00;52346.19;5040762;28;20528;-71
2022/06/07 02:06:27;;;;;;;;;;;;;;;-144.99;100.00;52293.19;5032117;28;20026;-71
2022/06/07 02:08:53;;;;;;;;;;;;;;;-144.99;100.00;52344.16;5041509;28;20035;-71
2022/06/07 02:11:23;;;;;;;;;;;;;;;-144.99;100.00;52313.56;5039032;28;20290;-72
2022/06/07 02:13:50;;;;;;;;;;;;;;;-144.99;100.00;52285.03;5039133;28;20495;-72
2022/06/07 02:16:18;;;;;;;;;;;;;;;-144.99;100.00;52315.59;5038523;28;20465;-71
2022/06/07 02:18:45;;;;;;;;;;;;;;;-144.99;100.00;52291.16;5039615;28;20030;-70
2022/06/07 02:21:11;;;;;;;;;;;;;;;-144.99;100.00;52333.94;5038716;28;19979;-69
2022/06/07 02:23:38;;;;;;;;;;;;;;;-144.99;100.00;52297.25;5042901;28;20419;-70
2022/06/07 02:26:07;;;;;;;;;;;;;;;-144.99;100.00;52317.66;5042260;28;19994;-71
2022/06/07 02:28:37;;;;;;;;;;;;;;;-144.99;100.00;52321.72;5043548;28;20457;-70
2022/06/07 02:31:04;;;;;;;;;;;;;;;-144.99;100.00;52287.06;5041280;28;20018;-70
2022/06/07 02:33:31;;;;;;;;;;;;;;;-144.99;100.00;52338.03;5042977;28;19966;-72
2022/06/07 02:35:58;;;;;;;;;;;;;;;-144.99;100.00;52309.50;5028159;28;20079;-71
2022/06/07 02:38:24;;;;;;;;;;;;;;;-144.99;100.00;52321.72;5037115;28;19985;-70
2022/06/07 02:40:53;;;;;;;;;;;;;;;-144.99;100.00;52313.56;5028160;28;20062;-70
2022/06/07 02:43:19;;;;;;;;;;;;;;;-144.99;100.00;52321.72;5038501;28;19973;-69
2022/06/07 02:45:47;;;;;;;;;;;;;;;-144.99;100.00;52333.94;5037604;28;19978;-70
2022/06/07 02:48:14;;;;;;;;;;;;;;;-144.99;100.00;52327.84;5034622;28;20328;-70
2022/06/07 02:50:41;;;;;;;;;;;;;;;-144.99;100.00;52305.41;5036170;28;20459;-70
2022/06/07 02:53:07;;;;;;;;;;;;;;;-144.99;100.00;52342.09;5035690;28;20840;-70
2022/06/07 02:55:34;;;;;;;;;;;;;;;-144.99;100.00;52309.50;5039645;28;20079;-70
2022/06/07 02:58:01;;;;;;;;;;;;;;;-144.99;100.00;52303.38;5038555;28;19993;-70
2022/06/07 03:00:28;;;;;;;;;;;;;;;-144.99;100.00;52293.19;5034065;28;20462;-71
2022/06/07 03:02:55;;;;;;;;;;;;;;;-144.99;100.00;52338.03;5046018;28;20398;-71
2022/06/07 03:05:22;;;;;;;;;;;;;;;-144.99;100.00;52313.56;5033251;28;20057;-64
2022/06/07 03:07:49;;;;;;;;;;;;;;;-144.99;100.00;52301.34;5038639;28;20413;-64
2022/06/07 03:10:16;;;;;;;;;;;;;;;-144.99;100.00;52333.94;5038328;28;19982;-64
2022/06/07 03:12:43;;;;;;;;;;;;;;;-144.99;100.00;52289.13;5039082;28;20061;-63
2022/06/07 03:15:10;;;;;;;;;;;;;;;-144.99;100.00;52297.25;5036077;28;19972;-63
2022/06/07 03:17:37;;;;;;;;;;;;;;;-144.99;100.00;52313.56;5032110;28;20090;-70
2022/06/07 03:20:06;;;;;;;;;;;;;;;-144.99;100.00;52285.03;5038605;28;20013;-69
2022/06/07 03:22:34;;;;;;;;;;;;;;;-144.99;100.00;52329.88;5038819;28;20053;-68
2022/06/07 03:25:05;;;;;;;;;;;;;;;-144.99;100.00;52305.41;5035633;28;19971;-69
2022/06/07 03:27:32;;;;;;;;;;;;;;;-144.99;100.00;52301.34;5036323;28;19987;-69
2022/06/07 03:29:59;;;;;;;;;;;;;;;-144.99;100.00;52317.66;5037141;28;20066;-69
2022/06/07 03:32:25;;;;;;;;;;;;;;;-144.99;100.00;52305.41;5034607;28;20068;-69
2022/06/07 03:34:52;;;;;;;;;;;;;;;-144.99;100.00;52354.34;5037980;28;19982;-68
2022/06/07 03:37:20;;;;;;;;;;;;;;;-144.99;100.00;52285.03;5041603;28;19991;-72
2022/06/07 03:39:46;;;;;;;;;;;;;;;-144.99;100.00;52297.25;5038489;28;19970;-70
2022/06/07 03:42:13;;;;;;;;;;;;;;;-144.99;100.00;52362.50;5031788;28;20066;-70
2022/06/07 03:44:40;;;;;;;;;;;;;;;-144.99;100.00;52293.19;5037427;28;20034;-70
2022/06/07 03:47:07;;;;;;;;;;;;;;;-144.99;100.00;52317.66;5030071;28;19980;-70
2022/06/07 03:49:34;;;;;;;;;;;;;;;-144.99;100.00;52327.84;5034382;28;19978;-68
2022/06/07 03:52:01;;;;;;;;;;;;;;;-144.99;100.00;52317.66;5030699;28;20476;-67
2022/06/07 03:54:29;;;;;;;;;;;;;;;-144.99;100.00;52313.56;5031159;28;19973;-66
2022/06/07 03:56:55;;;;;;;;;;;;;;;-144.99;100.00;52317.66;5035095;28;20075;-66
2022/06/07 03:59:22;;;;;;;;;;;;;;;-144.99;100.00;52297.25;5034448;28;20174;-68
2022/06/07 04:01:50;;;;;;;;;;;;;;;-144.99;100.00;52289.13;5035600;28;20047;-68
2022/06/07 04:04:17;;;;;;;;;;;;;;;-144.99;100.00;52280.97;5039093;28;19939;-67
2022/06/07 04:08:10;;;;;;;;;;;;;;;-144.99;100.00;52301.34;5045662;28;20058;-65
2022/06/07 04:09:39;;;;;;;;;;;;;;;-144.99;100.00;52331.91;5041299;28;19960;-65
2022/06/07 04:12:05;;;;;;;;;;;;;;;-144.99;100.00;52321.72;5043446;28;19974;-65
2022/06/07 04:14:32;;;;;;;;;;;;;;;-144.99;100.00;52293.19;5042035;28;19973;-67
2022/06/07 04:16:58;;;;;;;;;;;;;;;-144.99;100.00;52346.19;5046439;28;20015;-67
2022/06/07 04:19:25;;;;;;;;;;;;;;;-144.99;100.00;52293.19;5045333;28;20162;-67
2022/06/07 04:21:51;;;;;;;;;;;;;;;-144.99;100.00;52325.81;5047949;28;20009;-67
2022/06/07 04:24:18;;;;;;;;;;;;;;;-144.99;100.00;52354.34;5043152;28;20039;-67
2022/06/07 04:26:47;;;;;;;;;;;;;;;-144.99;100.00;52305.41;5044116;28;20019;-67
2022/06/07 04:29:14;;;;;;;;;;;;;;;-144.99;100.00;52309.50;5049790;28;19966;-67
2022/06/07 04:31:42;;;;;;;;;;;;;;;-144.99;100.00;52305.41;5048165;28;20116;-67
2022/06/07 04:34:08;;;;;;;;;;;;;;;-144.99;100.00;52333.94;5047001;28;19974;-67
2022/06/07 04:36:34;;;;;;;;;;;;;;;-144.99;100.00;52297.25;5040963;28;20089;-71
2022/06/07 04:39:02;;;;;;;;;;;;;;;-144.99;100.00;52280.97;5045209;28;19970;-72
2022/06/07 04:41:28;;;;;;;;;;;;;;;-144.99;100.00;52342.09;5039149;28;20062;-72
2022/06/07 04:43:56;;;;;;;;;;;;;;;-144.99;100.00;52313.56;5042833;28;20005;-71
2022/06/07 04:46:24;;;;;;;;;;;;;;;-144.99;100.00;52327.84;5048996;28;19994;-70
2022/06/07 04:48:51;;;;;;;;;;;;;;;-144.99;100.00;52309.50;5042703;28;19981;-70
2022/06/07 04:51:18;;;;;;;;;;;;;;;-144.99;100.00;52297.25;5034055;28;19974;-70
2022/06/07 04:53:45;;;;;;;;;;;;;;;-144.99;100.00;52305.41;5041397;28;19961;-71
2022/06/07 04:56:13;;;;;;;;;;;;;;;-144.99;100.00;52297.25;5040237;28;20015;-71
2022/06/07 04:58:39;;;;;;;;;;;;;;;-144.99;100.00;52323.75;5042525;28;20516;-71
2022/06/07 05:01:10;;;;;;;;;;;;;;;-144.99;100.00;52333.94;5037023;28;19956;-71
2022/06/07 05:03:37;;;;;;;;;;;;;;;-144.99;100.00;52309.50;5040494;28;20157;-71
2022/06/07 05:06:03;;;;;;;;;;;;;;;-144.99;100.00;52309.50;5036729;28;19972;-71
2022/06/07 05:08:30;;;;;;;;;;;;;;;-144.99;100.00;52289.13;5044649;28;20085;-71
2022/06/07 05:10:59;;;;;;;;;;;;;;;-144.99;100.00;52317.66;5043428;28;20019;-71
2022/06/07 05:13:25;;;;;;;;;;;;;;;-144.99;100.00;52301.34;5043520;28;19991;-68
2022/06/07 05:15:55;;;;;;;;;;;;;;;-144.99;100.00;52301.34;5038682;28;20088;-67
2022/06/07 05:18:22;;;;;;;;;;;;;;;-144.99;100.00;52329.88;5039628;28;19986;-67
2022/06/07 05:20:49;;;;;;;;;;;;;;;-144.99;100.00;52346.19;5044531;28;20463;-66
2022/06/07 05:23:15;;;;;;;;;;;;;;;-144.99;100.00;52325.81;5038607;28;19957;-67
2022/06/07 05:25:52;;;;;;;;;;;;;;;-144.99;100.00;52280.97;5039391;28;20062;-68
2022/06/07 05:28:18;;;;;;;;;;;;;;;-144.99;100.00;52309.50;5038306;28;20073;-68
2022/06/07 05:30:45;;;;;;;;;;;;;;;-144.99;100.00;52325.81;5042610;28;19986;-68
2022/06/07 05:33:11;;;;;;;;;;;;;;;-144.99;100.00;52285.03;5038195;28;20009;-68
2022/06/07 05:35:39;;;;;;;;;;;;;;;-144.99;100.00;52325.81;5039312;28;19967;-69
2022/06/07 05:38:05;;;;;;;;;;;;;;;-144.99;100.00;52309.50;5043498;28;20086;-69
2022/06/07 05:40:32;;;;;;;;;;;;;;;-144.99;100.00;52325.81;5038733;28;20058;-67
2022/06/07 05:42:59;;;;;;;;;;;;;;;-144.99;100.00;52321.72;5036146;28;20484;-68
2022/06/07 05:45:25;;;;;;;;;;;;;;;-144.99;100.00;52309.50;5031975;28;19978;-68
2022/06/07 05:47:52;;;;;;;;;;;;;;;-144.99;100.00;52309.50;5033118;28;19979;-68
2022/06/07 05:50:18;;;;;;;;;;;;;;;-144.99;100.00;52309.50;5039638;28;20373;-69
2022/06/07 05:52:46;;;;;;;;;;;;;;;-144.99;100.00;52285.03;5032676;28;19955;-68
2022/06/07 05:55:12;;;;;;;;;;;;;;;-144.99;100.00;52285.03;5029009;28;19990;-70
2022/06/07 05:57:39;;;;;;;;;;;;;;;-144.99;100.00;52283.00;5028784;28;19980;-69
2022/06/07 06:00:06;;;;;;;;;;;;;;;-144.99;100.00;52276.88;5028941;28;20007;-68
2022/06/07 06:02:32;;;;;;;;;;;;;;;-144.99;100.00;52291.16;5029687;28;20201;-69
2022/06/07 06:04:59;;;;;;;;;;;;;;;-144.99;100.00;52293.19;5026023;28;20071;-69
2022/06/07 06:07:25;;;;;;;;;;;;;;;-144.99;100.00;52297.25;5028832;28;20006;-69
2022/06/07 06:12:37;;;;;;;;;;;;;;;-144.99;100.00;52285.03;5027562;28;20461;-70
2022/06/07 06:15:04;;;;;;;;;;;;;;;-144.99;100.00;52297.25;5029121;28;20343;-69
2022/06/07 06:17:31;;;;;;;;;;;;;;;-144.99;100.00;52260.56;5028288;28;19985;-68
2022/06/07 06:19:57;;;;;;;;;;;;;;;-144.99;100.00;52268.72;5029120;28;19955;-67
2022/06/07 06:22:24;;;;;;;;;;;;;;;-144.99;100.00;52313.56;5028941;28;19953;-67
2022/06/07 06:24:50;;;;;;;;;;;;;;;-144.99;100.00;52305.41;5031398;28;20341;-67
2022/06/07 06:27:19;;;;;;;;;;;;;;;-144.99;100.00;52297.25;5029819;28;20028;-69
2022/06/07 06:29:45;;;;;;;;;;;;;;;-144.99;100.00;52276.88;5025870;28;20007;-68
2022/06/07 06:32:12;;;;;;;;;;;;;;;-144.99;100.00;52309.50;5028616;28;20079;-70
2022/06/07 06:34:38;;;;;;;;;;;;;;;-144.99;100.00;52317.66;5028001;28;19996;-68
2022/06/07 06:37:06;;;;;;;;;;;;;;;-144.99;100.00;52297.25;5027985;28;19985;-68
2022/06/07 06:39:33;;;;;;;;;;;;;;;-144.99;100.00;52305.41;5028218;28;20045;-68
2022/06/07 06:42:00;;;;;;;;;;;;;;;-144.99;100.00;52256.50;5024490;28;20407;-65
2022/06/07 06:44:27;;;;;;;;;;;;;;;-144.99;100.00;52317.66;5027691;28;19954;-65
2022/06/07 06:46:54;;;;;;;;;;;;;;;-144.99;100.00;52321.72;5028668;28;20087;-65
2022/06/07 06:49:20;;;;;;;;;;;;;;;-144.99;100.00;52293.19;5029988;28;19959;-67
2022/06/07 06:51:48;;;;;;;;;;;;;;;-144.99;100.00;52309.50;5030275;28;19987;-66
2022/06/07 06:54:15;;;;;;;;;;;;;;;-144.99;100.00;52301.34;5028197;28;19960;-66
2022/06/07 06:56:42;;;;;;;;;;;;;;;-144.99;100.00;52289.13;5028422;28;20015;-66
2022/06/07 06:59:09;;;;;;;;;;;;;;;-144.99;100.00;52305.41;5028610;28;20127;-69
2022/06/07 07:01:38;;;;;;;;;;;;;;;-144.99;100.00;52289.13;5027805;28;20054;-66
2022/06/07 07:04:06;;;;;;;;;;;;;;;-144.99;100.00;52252.44;5025789;28;19975;-66
2022/06/07 07:06:32;;;;;;;;;;;;;;;-144.99;100.00;52278.91;5027502;28;20085;-67
2022/06/07 07:08:59;;;;;;;;;;;;;;;-144.99;100.00;52321.72;5028303;28;20024;-67
2022/06/07 07:11:35;;;;;;;;;;;;;;;-144.99;100.00;52315.59;5027689;28;20002;-67
2022/06/07 07:14:02;;;;;;;;;;;;;;;-144.99;100.00;52283.00;5093659;22;20081;-64
2022/06/07 07:16:30;;;;;;;;;;;;;;;-144.99;100.00;52313.56;5087231;28;19969;-64
2022/06/07 07:18:58;;;;;;;;;;;;;;;-144.99;100.00;52309.50;5068686;28;20066;-63
2022/06/07 07:21:26;;;;;;;;;;;;;;;-144.99;100.00;52276.88;5068582;28;20452;-63
2022/06/07 07:23:52;;;;;;;;;;;;;;;-144.99;100.00;52287.06;5068713;28;20003;-62
2022/06/07 07:26:21;;;;;;;;;;;;;;;-144.99;100.00;52299.31;5067260;28;20424;-63
2022/06/07 07:28:49;;;;;;;;;;;;;;;-144.99;100.00;52285.03;5070755;28;20033;-62
2022/06/07 07:31:16;;;;;;;;;;;;;;;-144.99;100.00;52268.72;5067685;28;20693;-62
2022/06/07 07:33:43;;;;;;;;;;;;;;;-144.99;100.00;52276.88;5066663;28;20413;-62
2022/06/07 07:36:11;;;;;;;;;;;;;;;-144.99;100.00;52260.56;5067088;28;20303;-62
2022/06/07 07:38:39;;;;;;;;;;;;;;;-144.99;100.00;52309.50;5069802;28;19976;-61
2022/06/07 07:41:14;;;;;;;;;;;;;;;-144.99;100.00;52276.88;5068192;28;20008;-61
2022/06/07 07:43:40;;;;;;;;;;;;;;;-144.99;100.00;52272.81;5071536;28;20076;-63
2022/06/07 07:46:07;;;;;;;;;;;;;;;-144.99;99.67;52299.31;5068684;28;20438;-60
2022/06/07 07:48:34;;;;;;;;;;;;;;;-144.99;100.00;52309.50;5082119;28;20022;-61
2022/06/07 07:51:04;;;;;;;;;;;;;;;-144.99;100.00;52258.53;5072004;28;20014;-61
2022/06/07 07:53:32;;;;;;;;;;;;;;;-144.99;100.00;52293.19;5090213;28;20001;-62
2022/06/07 07:55:58;;;;;;;;;;;;;;;-144.99;99.93;52309.50;5091223;28;19986;-62
2022/06/07 07:58:25;;;;;;;;;;;;;;;-144.99;99.90;52283.00;5090061;28;20394;-63
2022/06/07 08:00:52;;;;;;;;;;;;;;;-144.99;99.38;52272.81;5089364;28;20078;-64
2022/06/07 08:03:19;;;;;;;;;;;;;;;-144.99;98.71;52297.25;5056933;28;19966;-66
2022/06/07 08:05:46;;;;;;;;;;;;;;;-144.99;97.87;52264.66;5060669;28;20412;-66
2022/06/07 08:08:13;;;;;;;;;;;;;;;-144.99;97.88;52268.72;5078738;28;20032;-66
2022/06/07 08:10:41;;;;;;;;;;;;;;;-144.99;97.50;52264.66;5076256;28;20170;-65
2022/06/07 08:13:08;;;;;;;;;;;;;;;-144.99;96.93;52301.34;5078929;28;19981;-66
2022/06/07 08:15:34;;;;;;;;;;;;;;;-144.99;95.58;52278.91;5090393;28;20048;-65
2022/06/07 08:18:03;;;;;;;;;;;;;;;-144.99;94.98;52309.50;5090085;28;19982;-66
2022/06/07 08:20:32;;;;;;;;;;;;;;;-144.99;94.97;52248.34;5090687;28;19966;-65
2022/06/07 08:22:59;;;;;;;;;;;;;;;-144.99;93.54;52293.19;5087731;28;19977;-65
2022/06/07 08:25:25;;;;;;;;;;;;;;;-144.99;94.10;52248.34;5086869;28;20375;-62
2022/06/07 08:27:53;;;;;;;;;;;;;;;-144.99;92.96;52305.41;5079685;28;20468;-61
2022/06/07 08:30:20;;;;;;;;;;;;;;;-144.99;92.66;52297.25;5073693;28;19989;-61
2022/06/07 08:32:47;;;;;;;;;;;;;;;-144.99;92.14;52230.00;5089554;28;19965;-62
2022/06/07 08:37:59;;;;;;;;;;;;;;;-144.99;90.62;52291.16;5065256;28;19982;-62
2022/06/07 08:40:28;;;;;;;;;;;;;;;-144.99;90.16;52280.97;5067535;28;19935;-63
2022/06/07 08:42:58;;;;;;;;;;;;;;;-144.99;89.84;52264.66;5064764;28;19924;-61
2022/06/07 08:45:28;;;;;;;;;;;;;;;-144.99;89.71;52252.44;5067826;28;19928;-63
2022/06/07 08:47:57;;;;;;;;;;;;;;;-144.99;88.76;52258.53;5061818;28;20409;-64
2022/06/07 08:50:24;;;;;;;;;;;;;;;-144.99;87.49;52325.81;5065171;28;19990;-62
2022/06/07 08:52:53;;;;;;;;;;;;;;;-144.99;86.75;52293.19;5071210;28;19924;-64
2022/06/07 08:55:22;;;;;;;;;;;;;;;-144.99;87.44;52270.78;5065703;28;19959;-64
2022/06/07 08:57:53;;;;;;;;;;;;;;;-144.99;86.57;52266.69;5073292;28;20035;-64
2022/06/07 09:00:22;;;;;;;;;;;;;;;-144.99;84.13;52248.34;5072120;28;19989;-64
2022/06/07 09:03:21;;;;;;;;;;;;;;;-144.99;84.21;52256.50;5071916;28;19928;-65
2022/06/07 09:05:51;;;;;;;;;;;;;;;-144.99;83.17;52276.88;5076904;28;19931;-63
2022/06/07 09:08:18;;;;;;;;;;;;;;;-144.99;83.67;52280.97;5074522;28;19999;-66
2022/06/07 09:13:34;;;;;;;;;;;;;;;-144.99;83.15;52252.44;5076477;28;20506;-67
2022/06/07 09:16:02;;;;;;;;;;;;;;;-144.99;83.64;52268.72;5071875;28;19925;-66
2022/06/07 09:18:30;;;;;;;;;;;;;;;-144.99;83.15;52276.88;5068244;28;19932;-66
2022/06/07 09:20:59;;;;;;;;;;;;;;;-144.99;81.46;52256.50;5069445;28;20004;-66
2022/06/07 09:23:28;;;;;;;;;;;;;;;-144.99;79.32;52240.19;5068876;28;19959;-66
2022/06/07 09:25:56;;;;;;;;;;;;;;;-144.99;80.11;52260.56;5069480;28;20297;-66
2022/06/07 09:28:26;;;;;;;;;;;;;;;-144.99;80.05;52227.97;5068693;28;20439;-68
2022/06/07 09:30:58;;;;;;;;;;;;;;;-144.99;80.58;52207.59;5075804;28;20446;-68
2022/06/07 09:33:27;;;;;;;;;;;;;;;-144.99;81.56;52256.50;5086439;28;20217;-67
2022/06/07 09:35:58;;;;;;;;;;;;;;;-144.99;80.27;52250.38;5075160;28;19978;-66
2022/06/07 09:38:29;;;;;;;;;;;;;;;-144.99;81.92;52248.34;5072550;28;19976;-67
2022/06/07 09:41:02;;;;;;;;;;;;;;;-144.99;83.15;52278.91;5074737;28;19976;-66
2022/06/07 09:43:38;;;;;;;;;;;;;;;-144.99;82.51;52285.03;5065801;28;19924;-67
2022/06/07 09:46:08;;;;;;;;;;;;;;;-144.99;82.03;52252.44;5069277;28;19924;-66
2022/06/07 09:48:38;;;;;;;;;;;;;;;-144.99;83.60;52280.97;5070251;28;20470;-66
2022/06/07 09:51:09;;;;;;;;;;;;;;;-144.99;83.73;52317.66;5092028;28;20460;-66
2022/06/07 09:53:36;;;;;;;;;;;;;;;-144.99;82.05;52232.03;5092597;28;19930;-66
2022/06/07 09:56:11;;;;;;;;;;;;;;;-144.99;83.50;52260.56;5079908;28;20023;-67
2022/06/07 09:58:44;;;;;;;;;;;;;;;-144.99;83.52;52262.63;5071690;28;19974;-66
2022/06/07 10:01:15;;;;;;;;;;;;;;;-144.99;83.50;52289.13;5070592;28;19967;-66
2022/06/07 10:03:48;;;;;;;;;;;;;;;-144.99;83.24;52289.13;5066301;28;19931;-67
2022/06/07 10:06:18;;;;;;;;;;;;;;;-144.99;82.42;52301.34;5065845;28;19924;-67
2022/06/07 10:08:56;;;;;;;;;;;;;;;-144.99;80.24;52260.56;5070975;28;20019;-66
2022/06/07 10:11:26;;;;;;;;;;;;;;;-144.99;77.68;52280.97;5075370;28;20182;-67
2022/06/07 10:14:10;;;;;;;;;;;;;;;-144.99;78.37;52252.44;5066795;28;20376;-66
2022/06/07 10:16:42;;;;;;;;;;;;;;;-144.99;76.24;52264.66;5063412;28;20274;-68
2022/06/07 10:19:19;;;;;;;;;;;;;;;-144.99;74.11;52268.72;5069495;28;19925;-66
2022/06/07 10:22:10;;;;;;;;;;;;;;;-144.99;72.38;52329.88;5071749;28;19924;-66
2022/06/07 10:24:42;;;;;;;;;;;;;;;-144.99;72.03;52285.03;5069037;28;20385;-67
2022/06/07 10:27:14;;;;;;;;;;;;;;;-144.99;72.09;52264.66;5069033;28;19929;-66
2022/06/07 10:29:57;;;;;;;;;;;;;;;-144.99;71.79;52293.19;5066738;28;20389;-66
2022/06/07 10:32:30;;;;;;;;;;;;;;;-144.99;71.15;52301.34;5075631;28;19924;-66
2022/06/07 10:35:01;;;;;;;;;;;;;;;-144.99;71.37;52305.41;5071282;28;20225;-66
2022/06/07 10:37:32;;;;;;;;;;;;;;;-144.99;72.79;52317.66;5059205;28;19924;-67
2022/06/07 10:40:05;;;;;;;;;;;;;;;-144.99;72.85;52346.19;5071595;28;19924;-66
2022/06/07 10:42:36;;;;;;;;;;;;;;;-144.99;77.12;52354.34;5065712;28;20000;-66
2022/06/07 10:45:11;;;;;;;;;;;;;;;-144.99;78.69;52293.19;5088741;28;20035;-65
2022/06/07 10:47:42;;;;;;;;;;;;;;;-144.99;79.69;52311.53;5090847;28;20278;-66
2022/06/07 10:50:16;;;;;;;;;;;;;;;-144.99;79.55;52327.84;5071540;28;19971;-65
2022/06/07 10:52:48;;;;;;;;;;;;;;;-144.99;80.24;52297.25;5068324;28;19978;-65
2022/06/07 10:55:19;;;;;;;;;;;;;;;-144.99;79.28;52342.09;5063932;28;19924;-66
2022/06/07 10:57:52;;;;;;;;;;;;;;;-144.99;80.29;52309.50;5065292;28;19925;-65
2022/06/07 11:00:26;;;;;;;;;;;;;;;-144.99;81.40;52333.94;5082254;28;20011;-65
2022/06/07 11:03:00;;;;;;;;;;;;;;;-144.99;81.17;52329.88;5077907;28;20119;-65
2022/06/07 11:11:01;;;;;;;;;;;;;;;-144.99;87.69;52350.25;5070756;28;20046;-65
2022/06/07 11:13:33;;;;;;;;;;;;;;;-144.99;88.04;52329.88;5084889;28;20269;-66
2022/06/07 11:16:03;;;;;;;;;;;;;;;-144.99;87.41;52301.34;5082574;28;20027;-66
2022/06/07 11:18:30;;;;;;;;;;;;;;;-144.99;86.95;52317.66;5066946;28;20015;-65
2022/06/07 11:21:27;;;;;;;;;;;;;;;-144.99;85.47;52293.19;5073444;28;19956;-65
2022/06/07 11:23:59;;;;;;;;;;;;;;;-144.99;84.18;52309.50;5008253;28;19993;-65
2022/06/07 11:26:28;;;;;;;;;;;;;;;-144.99;81.87;52317.66;5057025;28;20006;-65
2022/06/07 11:28:56;;;;;;;;;;;;;;;-144.99;81.19;52329.88;5074940;28;19931;-65
2022/06/07 11:31:27;;;;;;;;;;;;;;;-144.99;80.59;52333.94;5070888;28;19978;-66
2022/06/07 11:34:04;;;;;;;;;;;;;;;-144.99;79.96;52331.91;5073891;28;19924;-67
2022/06/07 11:36:34;;;;;;;;;;;;;;;-144.99;79.01;52285.03;5057057;28;20015;-65
2022/06/07 11:39:05;;;;;;;;;;;;;;;-144.99;78.35;52276.88;5066422;28;19932;-65
2022/06/07 11:41:42;;;;;;;;;;;;;;;-144.99;77.01;52305.41;5057830;28;19984;-65
2022/06/07 11:44:42;;;;;;;;;;;;;;;-144.99;75.72;52254.47;5062953;28;19931;-65
2022/06/07 11:47:23;;;;;;;;;;;;;;;-144.99;74.00;52278.91;5065108;28;19932;-65
2022/06/07 11:49:57;;;;;;;;;;;;;;;-144.99;73.35;52280.97;5070177;28;20342;-65
2022/06/07 11:52:25;;;;;;;;;;;;;;;-144.99;72.74;52272.81;5075198;28;19982;-65
2022/06/07 11:54:55;;;;;;;;;;;;;;;-144.99;72.68;52323.75;5063515;28;19932;-65
2022/06/07 11:57:26;;;;;;;;;;;;;;;-144.99;72.81;52289.13;5075361;28;20592;-65
2022/06/07 11:59:54;;;;;;;;;;;;;;;-144.99;73.64;52285.03;5073298;28;19976;-65
2022/06/07 12:02:26;;;;;;;;;;;;;;;-144.99;74.49;52297.25;5073793;28;21261;-65
2022/06/07 12:04:56;;;;;;;;;;;;;;;-144.99;75.59;52309.50;5070152;28;19928;-64
2022/06/07 12:07:25;;;;;;;;;;;;;;;-144.99;76.73;52329.88;5071221;28;20393;-65
2022/06/07 12:09:54;;;;;;;;;;;;;;;-144.99;77.56;52338.03;5066031;28;19932;-66
2022/06/07 12:12:23;;;;;;;;;;;;;;;-144.99;78.16;52303.38;5067604;28;19929;-66
2022/06/07 12:14:52;;;;;;;;;;;;;;;-144.99;79.09;52325.81;5061731;28;20366;-66
2022/06/07 12:17:20;;;;;;;;;;;;;;;-144.99;80.74;52350.25;5069417;28;20354;-64
2022/06/07 12:19:48;;;;;;;;;;;;;;;-144.99;80.70;52309.50;5080055;28;19951;-66
2022/06/07 12:22:16;;;;;;;;;;;;;;;-144.99;81.16;52305.41;5070581;28;20102;-66
2022/06/07 12:24:44;;;;;;;;;;;;;;;-144.99;79.90;52289.13;5075193;28;19932;-66
2022/06/07 12:27:14;;;;;;;;;;;;;;;-144.99;76.98;52299.31;5066680;28;19986;-65
2022/06/07 12:29:43;;;;;;;;;;;;;;;-144.99;76.17;52293.19;5067424;28;19967;-65
2022/06/07 12:32:17;;;;;;;;;;;;;;;-144.99;73.87;52280.97;5068854;28;19966;-66
2022/06/07 12:34:43;;;;;;;;;;;;;;;-144.99;71.35;52325.81;5068991;28;19930;-66
2022/06/07 12:37:21;;;;;;;;;;;;;;;-144.99;71.30;52248.34;5067717;28;19952;-65
2022/06/07 12:39:49;;;;;;;;;;;;;;;-144.99;69.91;52264.66;5071816;28;19924;-66
2022/06/07 12:42:18;;;;;;;;;;;;;;;-144.99;68.51;52289.13;5070434;28;20340;-65
2022/06/07 12:44:51;;;;;;;;;;;;;;;-144.99;68.06;52280.97;5075361;28;19975;-66
2022/06/07 12:47:22;;;;;;;;;;;;;;;-144.99;68.16;52299.31;5070348;28;20511;-66
2022/06/07 12:49:49;;;;;;;;;;;;;;;-144.99;69.18;52291.16;5068574;28;19968;-66